Time;durP1;ratioP1;P1;durP2;ratioP2;P2;SDS_P1;SDS_P2;PMS_P1;PMS_P2;Temp;Humidity;BMP_temperature;BMP_pressure;BME280_temperature;BME280_humidity;BME280_pressure;Samples;Min_cycle;Max_cycle;Signal;HPM_P1;HPM_P2
2022/04/28 00:01:08;;;;;;;3.17;1.75;;;15.40;96.70;;;;;;5069801;28;20073;-83
2022/04/28 00:03:36;;;;;;;3.15;1.60;;;15.30;96.70;;;;;;5052758;28;20109;-83
2022/04/28 00:06:05;;;;;;;2.63;1.90;;;15.30;96.70;;;;;;5062063;28;20391;-82
2022/04/28 00:08:33;;;;;;;2.35;1.60;;;15.30;96.70;;;;;;5046400;28;20053;-83
2022/04/28 00:11:03;;;;;;;2.70;1.63;;;15.30;96.70;;;;;;5055259;28;20043;-82
2022/04/28 00:13:31;;;;;;;3.83;1.95;;;15.20;96.70;;;;;;5057314;28;20048;-83
2022/04/28 00:15:59;;;;;;;3.38;1.60;;;15.20;96.70;;;;;;5053309;28;20139;-83
2022/04/28 00:18:27;;;;;;;1.70;1.60;;;15.20;96.70;;;;;;5053614;28;20049;-82
2022/04/28 00:20:55;;;;;;;5.53;1.80;;;15.10;96.70;;;;;;5052370;28;20067;-83
2022/04/28 00:23:23;;;;;;;2.95;1.58;;;15.00;96.70;;;;;;5059944;28;20077;-83
2022/04/28 00:25:51;;;;;;;2.55;1.88;;;15.00;96.70;;;;;;5063541;28;20071;-82
2022/04/28 00:28:21;;;;;;;5.65;2.17;;;15.00;96.70;;;;;;5058987;28;20032;-83
2022/04/28 00:30:49;;;;;;;2.03;1.40;;;14.90;96.70;;;;;;5056327;28;20048;-83
2022/04/28 00:33:18;;;;;;;3.50;1.75;;;14.90;96.70;;;;;;5058893;28;20051;-82
2022/04/28 00:35:47;;;;;;;2.28;1.50;;;14.90;96.70;;;;;;5051810;28;20873;-83
2022/04/28 00:38:15;;;;;;;2.30;1.33;;;14.90;96.70;;;;;;5073247;28;20102;-84
2022/04/28 00:40:44;;;;;;;3.83;1.60;;;14.80;96.70;;;;;;5039249;28;20091;-83
2022/04/28 00:43:18;;;;;;;2.85;1.42;;;14.80;96.70;;;;;;5075472;28;20450;-83
2022/04/28 00:45:48;;;;;;;2.78;1.40;;;14.70;96.70;;;;;;5057643;28;20052;-84
2022/04/28 00:51:06;;;;;;;3.97;1.38;;;14.60;96.70;;;;;;5077809;28;20135;-83
2022/04/28 00:53:41;;;;;;;3.17;1.35;;;14.70;96.70;;;;;;5054316;28;20146;-84
2022/04/28 00:56:10;;;;;;;2.83;1.30;;;14.60;96.70;;;;;;5062058;28;20052;-83
2022/04/28 00:58:41;;;;;;;1.92;1.10;;;14.60;96.70;;;;;;5056230;28;20040;-84
2022/04/28 01:01:11;;;;;;;1.30;1.20;;;14.60;96.70;;;;;;5050810;28;20106;-82
2022/04/28 01:03:40;;;;;;;1.30;1.15;;;14.60;96.70;;;;;;5032864;28;20644;-83
2022/04/28 01:06:08;;;;;;;2.35;1.13;;;14.60;96.70;;;;;;5050482;28;20053;-84
2022/04/28 01:08:36;;;;;;;2.17;1.23;;;14.70;96.70;;;;;;5070158;28;20055;-83
2022/04/28 01:11:04;;;;;;;1.52;0.93;;;14.70;96.70;;;;;;5064550;28;20113;-82
2022/04/28 01:13:42;;;;;;;2.60;1.13;;;14.70;96.70;;;;;;5042878;28;20038;-84
2022/04/28 01:16:16;;;;;;;1.80;1.40;;;14.70;96.70;;;;;;5051106;28;20458;-83
2022/04/28 01:18:45;;;;;;;4.03;1.77;;;14.70;96.70;;;;;;5059804;28;20056;-84
2022/04/28 01:21:15;;;;;;;1.50;1.40;;;14.60;96.70;;;;;;5058251;28;20064;-83
2022/04/28 01:23:44;;;;;;;2.33;1.70;;;14.50;96.70;;;;;;5053561;28;20041;-82
2022/04/28 01:26:15;;;;;;;1.65;1.10;;;14.50;96.70;;;;;;5055388;28;20068;-82
2022/04/28 01:28:44;;;;;;;3.63;1.75;;;14.50;96.70;;;;;;5051202;28;20596;-82
2022/04/28 01:31:12;;;;;;;2.88;1.33;;;14.40;96.70;;;;;;5055394;28;20091;-83
2022/04/28 01:33:50;;;;;;;1.63;1.20;;;14.40;96.70;;;;;;5043894;28;20494;-78
2022/04/28 01:36:22;;;;;;;2.75;1.15;;;14.50;96.70;;;;;;5053965;28;20137;-78
2022/04/28 01:38:50;;;;;;;4.15;1.85;;;14.40;96.70;;;;;;5055843;28;20151;-78
2022/04/28 01:41:19;;;;;;;2.28;1.30;;;14.40;96.70;;;;;;5054175;28;20041;-78
2022/04/28 01:43:47;;;;;;;2.67;1.40;;;14.30;96.70;;;;;;5057025;28;20098;-77
2022/04/28 01:46:15;;;;;;;1.80;1.30;;;14.20;96.70;;;;;;5050866;28;20490;-78
2022/04/28 01:49:04;;;;;;;4.65;1.58;;;14.10;96.70;;;;;;5051640;28;20053;-78
2022/04/28 01:54:59;;;;;;;1.75;1.25;;;14.10;96.70;;;;;;5071894;28;20052;-79
2022/04/28 01:57:46;;;;;;;3.28;1.45;;;14.00;96.70;;;;;;5066342;28;20704;-78
2022/04/28 02:00:33;;;;;;;3.00;1.20;;;14.00;96.70;;;;;;5050935;28;20048;-78
2022/04/28 02:03:07;;;;;;;4.30;1.30;;;13.90;96.70;;;;;;5060175;28;20041;-78
2022/04/28 02:05:36;;;;;;;1.95;1.02;;;13.90;96.70;;;;;;5052191;28;20135;-78
2022/04/28 02:08:08;;;;;;;3.00;1.33;;;14.00;96.70;;;;;;5040089;28;20066;-79
2022/04/28 02:10:36;;;;;;;1.67;1.05;;;14.00;96.70;;;;;;5052474;28;20049;-78
2022/04/28 02:13:09;;;;;;;2.83;1.95;;;14.10;96.70;;;;;;5060884;28;20044;-78
2022/04/28 02:15:56;;;;;;;1.58;0.90;;;14.10;96.70;;;;;;5052453;28;20060;-78
2022/04/28 02:18:43;;;;;;;5.05;1.30;;;14.00;96.70;;;;;;5060477;28;20523;-78
2022/04/28 02:21:11;;;;;;;1.63;1.10;;;13.90;96.70;;;;;;5066763;28;20114;-78
2022/04/28 02:23:47;;;;;;;2.90;1.13;;;13.90;96.70;;;;;;5054240;28;20064;-78
2022/04/28 02:26:16;;;;;;;3.53;1.15;;;13.90;96.70;;;;;;5053477;28;20068;-78
2022/04/28 02:28:44;;;;;;;1.63;0.90;;;13.90;96.70;;;;;;5059945;28;20772;-78
2022/04/28 02:31:26;;;;;;;3.22;1.20;;;13.90;96.70;;;;;;5054026;28;20094;-78
2022/04/28 02:33:54;;;;;;;1.67;1.00;;;13.80;96.70;;;;;;5075572;28;20040;-78
2022/04/28 02:36:32;;;;;;;3.40;1.30;;;13.60;96.70;;;;;;5042360;28;20048;-78
2022/04/28 02:39:01;;;;;;;1.85;1.00;;;13.60;96.70;;;;;;5036500;28;20135;-78
2022/04/28 02:41:40;;;;;;;1.52;1.20;;;13.60;96.70;;;;;;5066760;28;20055;-78
2022/04/28 02:44:10;;;;;;;1.85;1.30;;;13.50;96.70;;;;;;5047258;28;20122;-77
2022/04/28 02:46:40;;;;;;;1.85;0.95;;;13.40;96.70;;;;;;5049479;28;20136;-78
2022/04/28 02:49:10;;;;;;;5.53;2.30;;;13.50;96.70;;;;;;5052041;28;20049;-78
2022/04/28 02:51:38;;;;;;;1.52;1.17;;;13.50;96.70;;;;;;5036380;28;20164;-78
2022/04/28 02:54:10;;;;;;;1.70;1.10;;;13.50;96.70;;;;;;5050698;28;20594;-78
2022/04/28 02:56:45;;;;;;;2.60;1.02;;;13.50;96.70;;;;;;5053740;28;20048;-77
2022/04/28 02:59:13;;;;;;;2.20;1.13;;;13.40;96.70;;;;;;5049814;28;20037;-78
2022/04/28 03:01:41;;;;;;;2.38;1.10;;;13.40;96.70;;;;;;5058622;28;20629;-78
2022/04/28 03:04:11;;;;;;;1.85;0.90;;;13.40;96.70;;;;;;5051934;28;20049;-78
2022/04/28 03:12:14;;;;;;;1.23;1.00;;;13.30;96.70;;;;;;5065234;28;20081;-78
2022/04/28 03:14:53;;;;;;;3.72;0.85;;;13.40;96.70;;;;;;5056072;28;20047;-78
2022/04/28 03:17:21;;;;;;;1.42;0.70;;;13.40;96.70;;;;;;5058406;28;20377;-78
2022/04/28 03:19:50;;;;;;;2.40;1.00;;;13.50;96.70;;;;;;5045462;28;20059;-78
2022/04/28 03:22:18;;;;;;;2.53;1.17;;;13.40;96.70;;;;;;5052928;28;20057;-78
2022/04/28 03:24:48;;;;;;;2.13;1.27;;;13.30;96.70;;;;;;5047490;28;20402;-78
2022/04/28 03:27:16;;;;;;;2.40;1.38;;;13.30;96.70;;;;;;5051626;28;20055;-78
2022/04/28 03:29:44;;;;;;;2.08;1.48;;;13.40;96.70;;;;;;5045717;28;20521;-78
2022/04/28 03:32:14;;;;;;;2.55;1.83;;;13.30;96.70;;;;;;5074331;28;20414;-78
2022/04/28 03:35:03;;;;;;;3.60;1.88;;;13.30;96.70;;;;;;5050945;28;20111;-78
2022/04/28 03:37:31;;;;;;;2.67;1.67;;;13.30;96.70;;;;;;5054566;28;20051;-78
2022/04/28 03:40:01;;;;;;;5.30;2.40;;;13.20;96.70;;;;;;5055475;28;20052;-78
2022/04/28 03:42:30;;;;;;;2.47;2.10;;;13.20;96.70;;;;;;5053809;28;20503;-78
2022/04/28 03:45:01;;;;;;;2.72;1.90;;;13.20;96.70;;;;;;5053546;28;20110;-78
2022/04/28 03:47:36;;;;;;;2.25;1.65;;;13.20;96.70;;;;;;5052404;28;20045;-78
2022/04/28 03:50:05;;;;;;;1.73;1.40;;;13.10;96.70;;;;;;5057121;28;20049;-79
2022/04/28 03:52:36;;;;;;;2.10;1.23;;;13.20;96.70;;;;;;5054548;28;20053;-78
2022/04/28 03:55:08;;;;;;;2.60;1.38;;;13.20;96.70;;;;;;5061333;28;20098;-78
2022/04/28 03:57:41;;;;;;;2.58;1.60;;;13.10;96.70;;;;;;5051609;28;20387;-78
2022/04/28 04:00:10;;;;;;;2.45;0.98;;;13.20;96.70;;;;;;5055425;28;20041;-78
2022/04/28 04:02:52;;;;;;;3.53;1.10;;;13.20;96.70;;;;;;5051461;28;20107;-78
2022/04/28 04:05:21;;;;;;;1.65;1.10;;;13.20;96.70;;;;;;5054765;28;20073;-78
2022/04/28 04:07:49;;;;;;;1.63;0.90;;;13.20;96.70;;;;;;5055011;28;20044;-78
2022/04/28 04:10:45;;;;;;;1.77;1.25;;;13.20;96.70;;;;;;5051735;28;20045;-79
2022/04/28 04:13:13;;;;;;;1.63;0.90;;;13.20;96.70;;;;;;5057213;28;20110;-79
2022/04/28 04:15:50;;;;;;;0.82;0.68;;;13.20;96.70;;;;;;5052128;28;20462;-79
2022/04/28 04:18:30;;;;;;;1.65;1.02;;;13.10;96.70;;;;;;5061026;28;20064;-78
2022/04/28 04:21:06;;;;;;;;;;;13.10;96.70;;;;;;5074705;28;20612;-79
2022/04/28 04:23:34;;;;;;;1.30;0.95;;;13.10;96.70;;;;;;5071595;28;19928;-79
2022/04/28 04:26:04;;;;;;;2.08;0.90;;;13.10;96.70;;;;;;5073197;28;20033;-79
2022/04/28 04:28:33;;;;;;;2.17;1.25;;;13.00;96.70;;;;;;5050406;28;20098;-78
2022/04/28 04:34:16;;;;;;;1.85;1.30;;;13.00;96.70;;;;;;5067548;28;20056;-78
2022/04/28 04:36:44;;;;;;;2.15;0.98;;;13.10;96.70;;;;;;5061493;28;20075;-79
2022/04/28 04:39:13;;;;;;;2.30;1.45;;;13.10;96.70;;;;;;5049439;28;20990;-79
2022/04/28 04:41:44;;;;;;;3.17;1.05;;;13.10;96.70;;;;;;5057105;28;20044;-79
2022/04/28 04:44:14;;;;;;;2.15;1.20;;;13.20;96.70;;;;;;5047367;28;20145;-79
2022/04/28 04:46:46;;;;;;;4.50;1.60;;;13.30;96.70;;;;;;5049831;28;20418;-79
2022/04/28 04:49:32;;;;;;;3.03;1.70;;;13.30;96.70;;;;;;5065364;28;20048;-79
2022/04/28 04:52:13;;;;;;;2.95;1.42;;;13.40;96.70;;;;;;5050373;28;20041;-78
2022/04/28 04:55:07;;;;;;;3.47;1.90;;;13.40;96.70;;;;;;5053196;28;20067;-79
2022/04/28 04:57:56;;;;;;;3.47;1.77;;;13.50;96.70;;;;;;5048159;28;20553;-79
2022/04/28 05:00:24;;;;;;;4.10;1.90;;;13.60;96.70;;;;;;5055202;28;20174;-79
2022/04/28 05:03:12;;;;;;;3.30;2.40;;;13.60;96.70;;;;;;5049671;28;20111;-78
2022/04/28 05:05:56;;;;;;;4.20;2.50;;;13.60;96.70;;;;;;5046796;28;20283;-78
2022/04/28 05:08:32;;;;;;;4.38;2.90;;;13.60;96.70;;;;;;5056101;28;20056;-79
2022/04/28 05:11:05;;;;;;;5.00;3.13;;;13.60;96.70;;;;;;5034682;28;20060;-79
2022/04/28 05:13:36;;;;;;;4.30;3.35;;;13.60;96.70;;;;;;5065855;28;20075;-78
2022/04/28 05:16:07;;;;;;;8.13;3.45;;;13.70;96.70;;;;;;5050537;28;21004;-79
2022/04/28 05:18:58;;;;;;;5.63;3.95;;;13.80;96.70;;;;;;5036064;28;20045;-79
2022/04/28 05:21:44;;;;;;;8.05;3.65;;;13.80;96.70;;;;;;5033029;28;20047;-79
2022/04/28 05:24:31;;;;;;;6.50;4.00;;;13.90;96.70;;;;;;5058217;28;20231;-79
2022/04/28 05:27:17;;;;;;;4.85;3.38;;;13.90;96.70;;;;;;5067236;28;20060;-77
2022/04/28 05:29:47;;;;;;;6.22;3.70;;;14.00;96.70;;;;;;5065818;28;20131;-78
2022/04/28 05:32:18;;;;;;;8.68;4.38;;;14.10;96.70;;;;;;5057177;28;20114;-79
2022/04/28 05:34:52;;;;;;;7.05;4.75;;;14.20;96.70;;;;;;5037672;28;20148;-79
2022/04/28 05:37:22;;;;;;;6.00;3.88;;;14.20;96.70;;;;;;5061783;28;20048;-79
2022/04/28 05:39:50;;;;;;;6.82;4.05;;;14.20;96.70;;;;;;5049152;28;20517;-80
2022/04/28 05:42:18;;;;;;;8.43;3.95;;;14.20;96.70;;;;;;5035565;28;20142;-78
2022/04/28 05:47:35;;;;;;;7.88;3.65;;;14.30;96.70;;;;;;5052630;28;20451;-79
2022/04/28 05:50:04;;;;;;;6.75;3.40;;;14.40;96.70;;;;;;5058188;28;20055;-79
2022/04/28 05:52:33;;;;;;;8.60;4.25;;;14.50;96.70;;;;;;5047484;28;20163;-79
2022/04/28 05:55:01;;;;;;;6.32;3.85;;;14.50;96.70;;;;;;5048648;28;20049;-77
2022/04/28 05:57:30;;;;;;;5.57;3.15;;;14.60;96.70;;;;;;5049055;28;20178;-78
2022/04/28 05:59:59;;;;;;;8.27;3.88;;;14.70;96.70;;;;;;5048428;28;20045;-79
2022/04/28 06:02:43;;;;;;;4.47;3.10;;;14.70;96.70;;;;;;5054278;28;20060;-78
2022/04/28 06:05:22;;;;;;;5.53;2.75;;;14.80;96.70;;;;;;5051959;28;20553;-78
2022/04/28 06:07:51;;;;;;;3.92;2.65;;;14.80;96.70;;;;;;5052956;28;20083;-78
2022/04/28 06:10:19;;;;;;;5.70;1.90;;;14.80;96.70;;;;;;5053014;28;20044;-80
2022/04/28 06:12:54;;;;;;;4.22;1.92;;;14.90;96.70;;;;;;5048652;28;20040;-79
2022/04/28 06:15:59;;;;;;;4.18;1.40;;;15.00;96.70;;;;;;5054203;28;20407;-79
2022/04/28 06:18:45;;;;;;;2.97;1.77;;;15.10;96.70;;;;;;5058327;28;20056;-78
2022/04/28 06:21:33;;;;;;;3.05;1.30;;;15.10;96.70;;;;;;5061984;28;20048;-80
2022/04/28 06:24:01;;;;;;;1.55;1.10;;;15.20;96.70;;;;;;5070392;28;20136;-82
2022/04/28 06:26:31;;;;;;;2.47;1.17;;;15.30;96.70;;;;;;5070530;28;20239;-78
2022/04/28 06:29:00;;;;;;;4.10;1.52;;;15.30;96.70;;;;;;5062572;28;20132;-77
2022/04/28 06:31:32;;;;;;;2.75;1.25;;;15.30;96.70;;;;;;5047228;28;20048;-78
2022/04/28 06:34:19;;;;;;;3.55;1.65;;;15.30;96.70;;;;;;5060799;28;20060;-78
2022/04/28 06:36:47;;;;;;;3.10;1.42;;;15.40;96.70;;;;;;5037976;28;20052;-78
2022/04/28 06:39:15;;;;;;;3.33;1.40;;;15.50;96.70;;;;;;5048202;28;20067;-80
2022/04/28 06:41:45;;;;;;;2.78;1.20;;;15.50;96.70;;;;;;5055246;28;20045;-78
2022/04/28 06:44:31;;;;;;;3.38;1.20;;;15.60;96.70;;;;;;5053516;28;20052;-78
2022/04/28 06:47:27;;;;;;;1.58;1.08;;;15.60;96.70;;;;;;5042672;28;20044;-79
2022/04/28 06:50:15;;;;;;;2.28;1.40;;;15.70;96.70;;;;;;5056643;28;20048;-78
2022/04/28 06:53:04;;;;;;;3.35;1.40;;;15.80;96.70;;;;;;5041294;28;20140;-79
2022/04/28 06:55:35;;;;;;;4.00;1.40;;;15.90;96.70;;;;;;5072252;28;20384;-77
2022/04/28 06:58:03;;;;;;;4.10;1.50;;;15.90;96.70;;;;;;5041460;28;20053;-79
2022/04/28 07:00:38;;;;;;;2.60;1.45;;;16.00;96.70;;;;;;5055103;28;20060;-80
2022/04/28 07:03:10;;;;;;;6.00;1.30;;;16.10;96.70;;;;;;5042169;28;20052;-78
2022/04/28 07:05:39;;;;;;;2.58;1.17;;;16.20;96.70;;;;;;5053829;28;20049;-78
2022/04/28 07:08:09;;;;;;;2.47;1.25;;;16.30;96.70;;;;;;5047037;28;20055;-78
2022/04/28 07:10:44;;;;;;;2.92;0.90;;;16.40;96.70;;;;;;5048021;28;20052;-79
2022/04/28 07:13:12;;;;;;;3.88;1.13;;;16.40;96.70;;;;;;5073876;28;20122;-78
2022/04/28 07:15:58;;;;;;;2.10;0.80;;;16.50;96.70;;;;;;5053851;28;20130;-78
2022/04/28 07:19:02;;;;;;;1.30;0.90;;;16.60;96.70;;;;;;5047038;28;20128;-78
2022/04/28 07:21:30;;;;;;;1.35;0.93;;;16.70;96.70;;;;;;5048482;28;20049;-78
2022/04/28 07:23:59;;;;;;;1.80;0.90;;;16.70;96.70;;;;;;5051798;28;20063;-78
2022/04/28 07:26:28;;;;;;;1.58;1.08;;;16.80;96.70;;;;;;5071669;28;20594;-78
2022/04/28 07:28:56;;;;;;;2.05;1.08;;;16.90;96.70;;;;;;5055128;28;20033;-78
2022/04/28 07:31:43;;;;;;;3.50;1.08;;;17.00;96.70;;;;;;5052759;28;20056;-79
2022/04/28 07:34:13;;;;;;;2.08;0.80;;;17.00;96.70;;;;;;5055788;28;20105;-80
2022/04/28 07:37:00;;;;;;;3.10;0.77;;;17.20;96.70;;;;;;5061081;28;20119;-80
2022/04/28 07:39:28;;;;;;;1.70;0.80;;;17.20;96.70;;;;;;5055050;28;20045;-81
2022/04/28 07:42:23;;;;;;;1.73;0.75;;;17.30;96.70;;;;;;5052174;28;20489;-81
2022/04/28 07:44:51;;;;;;;1.75;0.93;;;17.40;96.70;;;;;;5060832;28;20135;-81
2022/04/28 07:47:19;;;;;;;1.73;0.85;;;17.50;96.70;;;;;;5054920;28;20068;-80
2022/04/28 07:50:04;;;;;;;5.50;0.70;;;17.60;96.70;;;;;;5036006;28;20048;-79
2022/04/28 07:52:32;;;;;;;2.05;0.45;;;17.60;96.70;;;;;;5049344;28;20103;-78
2022/04/28 07:55:03;;;;;;;1.13;0.40;;;17.70;96.70;;;;;;5052496;28;20124;-78
2022/04/28 07:57:32;;;;;;;1.20;0.70;;;17.80;96.70;;;;;;5039298;28;20063;-79
2022/04/28 08:00:00;;;;;;;2.80;0.70;;;17.80;96.70;;;;;;5061607;28;20292;-79
2022/04/28 08:02:32;;;;;;;0.73;0.50;;;18.00;96.70;;;;;;5052906;28;20096;-77
2022/04/28 08:05:02;;;;;;;1.00;0.40;;;18.20;96.70;;;;;;5061775;28;20113;-77
2022/04/28 08:07:30;;;;;;;1.30;0.32;;;18.20;96.70;;;;;;5073885;28;20209;-77
2022/04/28 08:09:59;;;;;;;1.05;0.70;;;18.20;96.70;;;;;;5057552;28;20040;-77
2022/04/28 08:12:27;;;;;;;1.23;0.55;;;18.20;96.70;;;;;;5043519;28;20068;-79
2022/04/28 08:15:51;;;;;;;0.88;0.60;;;18.20;96.70;;;;;;5038797;28;20055;-79
2022/04/28 08:18:20;;;;;;;1.33;0.60;;;18.30;96.70;;;;;;5050155;28;20052;-78
2022/04/28 08:20:49;;;;;;;0.95;0.60;;;18.50;96.70;;;;;;5067017;28;20068;-78
2022/04/28 08:23:18;;;;;;;0.85;0.50;;;18.50;96.70;;;;;;5057381;28;20072;-79
2022/04/28 08:25:46;;;;;;;2.63;1.10;;;18.50;96.70;;;;;;5036674;28;20152;-79
2022/04/28 08:28:15;;;;;;;0.70;0.57;;;18.70;96.70;;;;;;5052576;28;20098;-79
2022/04/28 08:30:44;;;;;;;0.88;0.60;;;18.80;96.70;;;;;;5052656;28;20044;-79
2022/04/28 08:33:12;;;;;;;3.08;0.50;;;18.90;96.70;;;;;;5046874;28;20061;-79
2022/04/28 08:35:40;;;;;;;1.27;0.68;;;18.90;96.70;;;;;;5052251;28;20529;-82
2022/04/28 08:38:10;;;;;;;0.80;0.57;;;19.00;96.70;;;;;;5058673;28;20071;-80
2022/04/28 08:40:46;;;;;;;1.15;0.60;;;19.10;96.70;;;;;;5054214;28;20056;-79
2022/04/28 08:43:27;;;;;;;2.38;0.70;;;19.00;96.70;;;;;;5059505;28;20060;-79
2022/04/28 08:48:53;;;;;;;;;;;19.20;96.70;;;;;;5051216;28;20494;-79
2022/04/28 08:51:25;;;;;;;0.73;0.55;;;19.40;95.90;;;;;;5053661;28;19932;-79
2022/04/28 08:54:01;;;;;;;1.77;0.60;;;19.40;95.50;;;;;;5055180;28;20067;-78
2022/04/28 08:56:31;;;;;;;2.65;0.80;;;19.60;95.60;;;;;;5059448;28;20430;-78
2022/04/28 08:59:04;;;;;;;0.82;0.57;;;19.60;95.40;;;;;;5053757;28;20202;-79
2022/04/28 09:01:32;;;;;;;0.50;0.40;;;19.60;94.40;;;;;;5073503;28;20044;-78
2022/04/28 09:04:22;;;;;;;0.88;0.73;;;19.70;94.10;;;;;;5056634;28;20055;-78
2022/04/28 09:07:09;;;;;;;1.45;0.70;;;19.70;94.80;;;;;;5050467;28;20047;-79
2022/04/28 09:10:27;;;;;;;1.05;0.70;;;19.90;93.70;;;;;;5056929;28;20048;-79
2022/04/28 09:16:25;;;;;;;1.98;0.77;;;19.80;95.80;;;;;;5056688;28;20651;-78
2022/04/28 09:18:55;;;;;;;1.13;0.50;;;20.10;94.30;;;;;;5053188;28;20402;-78
2022/04/28 09:21:23;;;;;;;1.38;0.75;;;20.30;93.90;;;;;;5056613;28;20042;-78
2022/04/28 09:23:51;;;;;;;1.73;0.88;;;20.20;94.40;;;;;;5066645;28;20075;-79
2022/04/28 09:26:24;;;;;;;2.95;0.90;;;20.20;93.70;;;;;;5048664;28;20140;-81
2022/04/28 09:28:55;;;;;;;2.00;0.80;;;20.40;94.20;;;;;;5047117;28;20509;-81
2022/04/28 09:31:33;;;;;;;1.08;0.85;;;20.50;93.60;;;;;;5065080;28;20533;-79
2022/04/28 09:35:06;;;;;;;2.92;1.00;;;20.60;93.50;;;;;;5050979;28;20123;-79
2022/04/28 09:37:48;;;;;;;1.60;0.90;;;20.70;91.90;;;;;;5062618;28;20842;-79
2022/04/28 09:43:25;;;;;;;1.40;1.02;;;20.90;92.60;;;;;;5004727;28;20553;-80
2022/04/28 09:45:56;;;;;;;1.30;0.90;;;21.00;93.00;;;;;;5000498;28;20049;-80
2022/04/28 09:48:28;;;;;;;1.10;1.00;;;21.00;93.10;;;;;;5030149;28;20118;-80
2022/04/28 09:51:00;;;;;;;0.90;0.82;;;21.10;92.20;;;;;;5039008;28;20409;-79
2022/04/28 09:53:48;;;;;;;1.00;0.77;;;21.10;91.90;;;;;;5057110;28;20052;-79
2022/04/28 09:56:46;;;;;;;1.17;0.95;;;21.10;92.30;;;;;;5053707;28;20057;-79
2022/04/28 09:59:28;;;;;;;1.88;1.05;;;21.30;91.40;;;;;;5071844;28;20041;-79
2022/04/28 10:01:59;;;;;;;2.05;0.80;;;21.30;91.80;;;;;;5054781;28;21004;-79
2022/04/28 10:04:30;;;;;;;1.20;0.82;;;21.30;92.30;;;;;;5043614;28;20140;-80
2022/04/28 10:07:08;;;;;;;2.38;0.90;;;21.30;91.50;;;;;;5052154;28;20835;-79
2022/04/28 10:09:39;;;;;;;1.65;0.80;;;21.40;91.40;;;;;;5050671;28;20048;-79
2022/04/28 10:12:14;;;;;;;2.28;1.00;;;21.60;91.00;;;;;;5041859;28;20060;-79
2022/04/28 10:14:59;;;;;;;1.00;0.80;;;21.70;91.30;;;;;;5063406;28;20097;-79
2022/04/28 10:17:34;;;;;;;1.20;0.90;;;21.70;91.20;;;;;;5054177;28;20712;-79
2022/04/28 10:20:07;;;;;;;2.38;0.90;;;21.80;90.40;;;;;;5054693;28;20392;-79
2022/04/28 10:23:10;;;;;;;1.70;1.10;;;21.70;90.20;;;;;;5050835;28;20037;-79
2022/04/28 10:35:00;;;;;;;1.30;0.95;;;22.00;89.50;;;;;;5057631;28;20056;-78
2022/04/28 10:37:31;;;;;;;3.42;1.10;;;22.20;90.50;;;;;;5050009;28;20082;-78
2022/04/28 10:39:59;;;;;;;1.20;0.75;;;22.50;90.00;;;;;;5052177;28;20107;-79
2022/04/28 10:42:55;;;;;;;1.00;0.77;;;22.60;89.80;;;;;;5048008;28;20045;-79
2022/04/28 10:45:25;;;;;;;1.92;1.17;;;22.60;89.10;;;;;;5069402;28;20387;-83
2022/04/28 10:48:27;;;;;;;1.13;1.02;;;22.50;89.00;;;;;;5064846;28;20044;-83
2022/04/28 10:51:10;;;;;;;1.65;1.05;;;22.70;90.00;;;;;;5050221;28;20032;-79
2022/04/28 10:54:00;;;;;;;2.80;1.10;;;23.00;90.00;;;;;;5047852;28;20158;-78
2022/04/28 10:56:30;;;;;;;2.30;1.02;;;23.20;89.30;;;;;;5060207;28;20048;-81
2022/04/28 10:58:59;;;;;;;3.65;1.00;;;23.30;89.20;;;;;;5058164;28;20048;-80
2022/04/28 11:01:31;;;;;;;2.03;1.08;;;23.20;88.60;;;;;;5056655;28;20044;-79
2022/04/28 11:04:02;;;;;;;2.20;1.10;;;23.30;87.90;;;;;;5059578;28;20660;-85
2022/04/28 11:06:31;;;;;;;3.22;1.35;;;23.30;87.70;;;;;;5048685;28;20044;-81
2022/04/28 11:09:01;;;;;;;2.28;1.17;;;23.30;88.10;;;;;;5050756;28;20124;-79
2022/04/28 11:11:42;;;;;;;3.20;1.17;;;23.50;88.80;;;;;;5050168;28;20094;-81
2022/04/28 11:14:25;;;;;;;1.58;1.05;;;23.80;89.20;;;;;;5060471;28;20050;-80
2022/04/28 11:16:56;;;;;;;2.17;1.10;;;23.90;87.40;;;;;;5066776;28;20063;-80
2022/04/28 11:19:28;;;;;;;1.30;1.20;;;24.00;87.40;;;;;;5057870;28;20231;-80
2022/04/28 11:22:00;;;;;;;1.77;1.20;;;24.00;87.90;;;;;;5070619;28;20483;-80
2022/04/28 11:24:28;;;;;;;1.17;0.73;;;24.00;88.50;;;;;;5049115;28;20045;-80
2022/04/28 11:27:12;;;;;;;2.25;1.05;;;23.90;88.10;;;;;;5046925;28;20421;-80
2022/04/28 11:29:51;;;;;;;1.67;0.90;;;23.90;86.80;;;;;;5050423;28;20091;-81
2022/04/28 11:32:19;;;;;;;2.05;0.85;;;24.00;86.70;;;;;;5049672;28;20071;-80
2022/04/28 11:34:50;;;;;;;2.05;0.90;;;23.90;87.40;;;;;;5068309;28;20147;-81
2022/04/28 11:37:22;;;;;;;2.80;0.90;;;23.90;87.60;;;;;;5055137;28;20053;-80
2022/04/28 11:39:51;;;;;;;2.67;1.10;;;23.90;87.20;;;;;;5047163;28;20041;-82
2022/04/28 11:42:43;;;;;;;1.05;0.90;;;24.20;88.10;;;;;;5054027;28;20044;-82
2022/04/28 11:45:12;;;;;;;2.35;1.08;;;24.30;87.30;;;;;;5051826;28;20219;-81
2022/04/28 11:47:45;;;;;;;1.50;1.15;;;24.50;87.60;;;;;;5055796;28;20043;-82
2022/04/28 11:50:23;;;;;;;4.25;1.05;;;24.60;87.60;;;;;;5058969;28;20044;-81
2022/04/28 11:52:59;;;;;;;2.70;1.17;;;24.70;86.20;;;;;;5048334;28;20072;-80
2022/04/28 11:55:33;;;;;;;1.38;0.90;;;24.70;87.40;;;;;;5052266;28;20600;-82
2022/04/28 11:58:02;;;;;;;1.85;1.30;;;24.70;86.60;;;;;;5046699;28;20110;-80
2022/04/28 12:00:37;;;;;;;1.85;1.05;;;24.50;87.00;;;;;;5051132;28;20053;-80
2022/04/28 12:03:05;;;;;;;0.80;0.70;;;24.30;85.70;;;;;;5051275;28;20838;-82
2022/04/28 12:05:37;;;;;;;1.77;0.90;;;24.10;87.20;;;;;;5059999;28;20078;-83
2022/04/28 12:08:05;;;;;;;2.63;1.30;;;24.10;86.30;;;;;;5053003;28;20044;-82
2022/04/28 12:19:19;;;;;;;0.95;0.80;;;24.70;85.70;;;;;;5052360;28;20040;-81
2022/04/28 12:19:21;;;;;;;1.60;0.90;;;24.70;84.90;;;;;;5067617;28;20048;-84
2022/04/28 12:21:50;;;;;;;2.10;0.90;;;25.00;86.00;;;;;;5053841;28;20090;-83
2022/04/28 12:24:19;;;;;;;1.98;1.13;;;25.10;85.40;;;;;;5040348;28;20040;-86
2022/04/28 12:26:49;;;;;;;2.33;0.75;;;25.10;84.20;;;;;;5061647;28;20048;-85
2022/04/28 12:29:19;;;;;;;1.52;0.70;;;25.10;84.60;;;;;;5049192;28;20494;-88
2022/04/28 12:31:55;;;;;;;2.78;1.10;;;25.00;84.60;;;;;;5051650;28;20055;-82
2022/04/28 12:34:25;;;;;;;3.10;0.85;;;24.70;84.20;;;;;;5070012;28;20053;-82
2022/04/28 12:36:58;;;;;;;2.35;1.08;;;24.50;85.40;;;;;;5050141;28;20552;-81
2022/04/28 12:39:31;;;;;;;2.42;1.00;;;24.50;85.60;;;;;;5040837;28;20082;-81
2022/04/28 12:42:10;;;;;;;2.28;0.88;;;24.50;85.90;;;;;;5051588;28;20700;-81
2022/04/28 12:44:44;;;;;;;1.70;1.10;;;24.60;85.30;;;;;;5071928;28;20048;-80
2022/04/28 12:47:14;;;;;;;1.63;1.02;;;24.60;85.10;;;;;;5054288;28;20048;-81
2022/04/28 12:49:47;;;;;;;2.20;1.10;;;24.60;84.70;;;;;;5044060;28;20996;-82
2022/04/28 12:52:31;;;;;;;4.22;0.90;;;24.90;85.00;;;;;;5058293;28;20095;-81
2022/04/28 12:55:04;;;;;;;1.42;1.00;;;25.00;84.50;;;;;;5073798;28;20716;-82
2022/04/28 12:57:32;;;;;;;3.00;0.80;;;25.00;84.90;;;;;;5050014;28;20049;-81
2022/04/28 13:00:01;;;;;;;1.20;0.90;;;25.10;84.20;;;;;;5045587;28;20052;-82
2022/04/28 13:02:31;;;;;;;1.95;1.08;;;25.00;84.20;;;;;;5050451;28;20052;-83
2022/04/28 13:05:10;;;;;;;1.50;1.02;;;25.10;85.10;;;;;;5051879;28;20391;-83
2022/04/28 13:08:00;;;;;;;1.95;1.00;;;25.20;84.10;;;;;;5053600;28;21021;-80
2022/04/28 13:10:28;;;;;;;1.80;1.23;;;25.40;84.40;;;;;;5051714;28;20044;-80
2022/04/28 13:12:56;;;;;;;0.98;0.65;;;25.20;84.40;;;;;;5054528;28;20124;-81
2022/04/28 13:15:24;;;;;;;1.60;0.90;;;25.10;84.10;;;;;;5066099;28;20064;-80
2022/04/28 13:17:52;;;;;;;1.42;1.00;;;25.30;85.10;;;;;;5058755;28;20040;-81
2022/04/28 13:20:21;;;;;;;1.20;1.00;;;25.40;84.70;;;;;;5050942;28;20417;-82
2022/04/28 13:22:50;;;;;;;0.98;0.80;;;25.60;84.00;;;;;;5053337;28;20036;-81
2022/04/28 13:25:20;;;;;;;4.72;1.30;;;25.80;84.10;;;;;;5069431;28;20644;-80
2022/04/28 13:27:49;;;;;;;1.08;0.88;;;25.80;82.60;;;;;;5058277;28;20127;-81
2022/04/28 13:30:17;;;;;;;0.95;0.80;;;25.70;82.70;;;;;;5045483;28;20047;-80
2022/04/28 13:32:45;;;;;;;1.50;0.82;;;25.90;82.30;;;;;;5048212;28;20045;-80
2022/04/28 13:35:13;;;;;;;1.80;1.33;;;25.80;81.70;;;;;;5051711;28;20048;-80
2022/04/28 13:37:41;;;;;;;1.38;0.95;;;25.80;82.30;;;;;;5041671;28;20051;-81
2022/04/28 13:40:09;;;;;;;1.20;0.85;;;25.90;81.60;;;;;;5068699;28;20040;-81
2022/04/28 13:42:39;;;;;;;0.85;0.80;;;26.20;82.70;;;;;;5051521;28;20063;-80
2022/04/28 13:45:08;;;;;;;1.45;0.90;;;26.60;82.30;;;;;;5054075;28;20501;-81
2022/04/28 13:47:36;;;;;;;1.88;1.10;;;26.70;82.00;;;;;;5050790;28;20905;-81
2022/04/28 13:50:05;;;;;;;1.48;0.95;;;26.70;81.10;;;;;;5060274;28;20068;-81
2022/04/28 13:52:34;;;;;;;1.85;0.95;;;26.80;81.20;;;;;;5062151;28;20044;-81
2022/04/28 13:55:02;;;;;;;1.38;0.90;;;27.10;80.50;;;;;;5050682;28;20558;-80
2022/04/28 13:57:30;;;;;;;1.98;0.95;;;27.10;80.70;;;;;;5053449;28;20645;-81
2022/04/28 14:00:01;;;;;;;1.38;1.00;;;27.10;79.80;;;;;;5066983;28;20135;-81
2022/04/28 14:03:00;;;;;;;2.80;0.85;;;27.00;80.10;;;;;;5072043;28;20125;-81
2022/04/28 14:05:29;;;;;;;1.55;0.90;;;27.00;80.20;;;;;;5057757;28;20045;-82